Tuxedo, Georgia
Current Conditions -  °F | °C
As of 6:53 AM on Sunday 25 Jan 2015 (Local Time) from KPDK Reporting Station
Clear Clear  
Wind Chill: 27°   Ceiling: Unl
Heat Index: 27°   Visibility: 8mi
Dew Point: 25°   Wind: 0mph
Humidity: 92%   Direction: NA
Pressure: 29.96"   Gusts: NA
Location:  33.8817°N, 84.3745°W
Report Text: KPDK 251153Z 00000KT 8SM CLR M03/M04 A2996 RMK AO2 SLP160 T10281039 10017 21033 51004 $
Loading
Personal Weather Stations






























Interactive Weather Map New forecast layout! Learn more

10-Day Weather Forecast

Advertisements
Track Severe Weather on mobile